createdAt,value
2022-08-08T00:01:09.312Z,44
2022-08-08T00:06:55.698Z,48
2022-08-08T00:12:36.156Z,48
2022-08-08T00:18:18.704Z,56
2022-08-08T00:24:03.284Z,56
2022-08-08T00:29:47.603Z,40
2022-08-08T00:35:28.731Z,56
2022-08-08T00:41:15.897Z,52
2022-08-08T00:46:59.130Z,44
2022-08-08T00:52:51.939Z,44
2022-08-08T00:58:34.964Z,48
2022-08-08T01:04:15.904Z,58
2022-08-08T01:09:56.520Z,48
2022-08-08T01:15:54.954Z,40
2022-08-08T01:22:35.712Z,46
2022-08-08T01:28:29.807Z,46
2022-08-08T01:34:10.151Z,52
2022-08-08T01:39:57.290Z,52
2022-08-08T01:45:38.233Z,48
2022-08-08T02:01:02.974Z,46
2022-08-08T02:06:59.312Z,54
2022-08-08T02:12:40.173Z,44
2022-08-08T02:18:20.384Z,36
2022-08-08T02:24:01.023Z,46
2022-08-08T02:29:53.314Z,54
2022-08-08T02:36:16.371Z,48
2022-08-08T02:42:11.260Z,56
2022-08-08T02:47:56.203Z,50
2022-08-08T02:53:37.683Z,52
2022-08-08T03:00:33.830Z,38
2022-08-08T03:06:35.935Z,46
2022-08-08T03:12:57.189Z,54
2022-08-08T03:22:00.437Z,56
2022-08-08T03:27:42.548Z,50
2022-08-08T03:34:01.632Z,52
2022-08-08T03:40:04.266Z,52
2022-08-08T03:46:09.910Z,42
2022-08-08T03:56:55.470Z,0
2022-08-08T04:02:53.368Z,54
2022-08-08T04:08:37.214Z,52
2022-08-08T04:14:37.147Z,48
2022-08-08T04:25:20.723Z,46
2022-08-08T04:32:00.832Z,42
2022-08-08T04:37:57.339Z,50
2022-08-08T04:48:42.858Z,42
2022-08-08T04:54:42.971Z,58
2022-08-08T05:00:33.469Z,56
2022-08-08T05:06:29.865Z,42
2022-08-08T05:12:29.847Z,54
2022-08-08T05:18:13.307Z,56
2022-08-08T05:24:08.571Z,42
2022-08-08T05:29:52.922Z,44
2022-08-08T05:35:54.616Z,48
2022-08-08T05:41:56.261Z,46
2022-08-08T05:48:09.763Z,48
2022-08-08T05:55:01.129Z,42
2022-08-08T06:00:59.325Z,52
2022-08-08T06:06:48.210Z,44
2022-08-08T06:12:33.261Z,56
2022-08-08T06:18:23.217Z,50
2022-08-08T06:24:36.573Z,56
2022-08-08T06:30:29.882Z,52
2022-08-08T06:36:10.910Z,48
2022-08-08T06:41:51.293Z,54
2022-08-08T06:48:04.967Z,50
2022-08-08T06:54:01.053Z,48
2022-08-08T07:00:17.201Z,64
2022-08-08T07:06:17.562Z,58
2022-08-08T07:11:57.415Z,54
2022-08-08T07:18:41.409Z,58
2022-08-08T07:30:26.804Z,54
2022-08-08T07:36:09.414Z,48
2022-08-08T07:42:12.777Z,44
2022-08-08T07:47:54.223Z,8
2022-08-08T07:54:04.045Z,6
2022-08-08T07:59:49.347Z,6
2022-08-08T08:05:35.250Z,6
2022-08-08T08:11:22.600Z,10
2022-08-08T08:17:57.691Z,18
2022-08-08T08:23:51.453Z,4
2022-08-08T08:29:43.140Z,12
2022-08-08T08:36:29.637Z,12
2022-08-08T08:42:35.473Z,10
2022-08-08T08:48:20.305Z,8
2022-08-08T08:54:02.842Z,2
2022-08-08T09:00:19.691Z,2
2022-08-08T09:06:02.273Z,6
2022-08-08T09:12:09.693Z,6
2022-08-08T09:17:58.346Z,0
2022-08-08T09:23:41.249Z,2
2022-08-08T09:29:26.394Z,0
2022-08-08T09:35:08.874Z,16
2022-08-08T09:40:58.362Z,2
2022-08-08T09:48:02.766Z,4
2022-08-08T09:54:41.971Z,0
2022-08-08T10:00:59.238Z,0
2022-08-08T10:06:54.007Z,0
2022-08-08T10:12:57.672Z,0
2022-08-08T10:18:57.001Z,4
2022-08-08T10:24:40.558Z,4
2022-08-08T10:31:04.923Z,2
2022-08-08T10:36:51.058Z,0
2022-08-08T10:42:34.564Z,0
2022-08-08T10:48:31.193Z,0
2022-08-08T10:59:44.665Z,0
2022-08-08T11:05:24.719Z,18
2022-08-08T11:12:14.573Z,0
2022-08-08T11:18:02.772Z,8
2022-08-08T11:23:42.820Z,2
2022-08-08T11:30:27.657Z,0
2022-08-08T11:36:31.966Z,0
2022-08-08T11:42:18.202Z,2
2022-08-08T11:48:21.182Z,0
2022-08-08T11:54:45.041Z,0
2022-08-08T12:16:51.653Z,0
2022-08-08T12:22:46.972Z,6
2022-08-08T12:28:39.173Z,0
2022-08-08T12:34:36.978Z,10
2022-08-08T12:40:25.633Z,0
2022-08-08T12:46:24.976Z,0
2022-08-08T12:52:40.838Z,0
2022-08-08T12:58:36.138Z,4
2022-08-08T13:06:08.417Z,6
2022-08-08T13:12:52.268Z,0
2022-08-08T13:19:20.247Z,0
2022-08-08T13:25:15.647Z,4
2022-08-08T13:31:09.577Z,0
2022-08-08T13:36:55.694Z,4
2022-08-08T13:42:44.314Z,0
2022-08-08T13:48:27.380Z,6
2022-08-08T13:54:18.751Z,4
2022-08-08T14:00:06.050Z,4
2022-08-08T14:06:02.172Z,2
2022-08-08T14:11:45.342Z,0
2022-08-08T14:18:55.582Z,2
2022-08-08T14:24:49.902Z,2
2022-08-08T14:30:35.803Z,2
2022-08-08T14:36:34.918Z,2
2022-08-08T14:42:27.705Z,2
2022-08-08T14:48:09.931Z,0
2022-08-08T14:53:58.595Z,2
2022-08-08T14:59:59.371Z,0
2022-08-08T15:05:59.517Z,0
2022-08-08T15:11:54.028Z,2
2022-08-08T15:22:40.070Z,3
2022-08-08T15:28:41.249Z,0
2022-08-08T15:34:32.554Z,2
2022-08-08T15:40:16.962Z,6
2022-08-08T15:46:06.057Z,24
2022-08-08T15:51:46.509Z,56
2022-08-08T15:57:39.867Z,54
2022-08-08T16:03:24.804Z,46
2022-08-08T16:13:46.840Z,54
2022-08-08T16:20:01.619Z,54
2022-08-08T16:26:17.771Z,60
2022-08-08T16:32:35.470Z,46
2022-08-08T16:38:32.175Z,62
2022-08-08T16:44:13.632Z,56
2022-08-08T16:50:14.936Z,54
2022-08-08T16:56:15.918Z,52
2022-08-08T17:01:59.638Z,52
2022-08-08T17:07:42.516Z,48
2022-08-08T17:14:02.072Z,46
2022-08-08T17:19:50.331Z,58
2022-08-08T17:25:54.586Z,62
2022-08-08T17:31:49.911Z,46
2022-08-08T17:37:36.387Z,58
2022-08-08T17:43:22.992Z,48
2022-08-08T17:49:10.114Z,60
2022-08-08T17:54:56.862Z,60
2022-08-08T18:00:54.430Z,126
2022-08-08T18:06:45.223Z,56
2022-08-08T18:13:15.408Z,62
2022-08-08T18:19:02.918Z,52
2022-08-08T18:24:50.257Z,56
2022-08-08T18:30:32.455Z,56
2022-08-08T18:36:25.669Z,62
2022-08-08T18:42:22.473Z,46
2022-08-08T18:48:18.501Z,54
2022-08-08T18:54:31.178Z,50
2022-08-08T19:00:23.792Z,58
2022-08-08T19:06:09.174Z,52
2022-08-08T19:11:50.896Z,52
2022-08-08T19:19:00.602Z,46
2022-08-08T19:26:31.597Z,48
2022-08-08T19:32:25.598Z,48
2022-08-08T19:38:22.621Z,60
2022-08-08T19:44:50.678Z,56
2022-08-08T19:50:46.181Z,58
2022-08-08T19:56:49.196Z,56
2022-08-08T20:02:32.320Z,56
2022-08-08T20:08:32.633Z,56
2022-08-08T20:14:53.642Z,52
2022-08-08T20:20:45.614Z,54
2022-08-08T20:32:14.460Z,49
2022-08-08T20:38:09.011Z,54
2022-08-08T20:43:51.979Z,50
2022-08-08T20:49:57.791Z,56
2022-08-08T20:55:51.760Z,48
2022-08-08T21:02:12.390Z,54
2022-08-08T21:08:52.482Z,50
2022-08-08T21:14:39.812Z,58
2022-08-08T21:20:35.338Z,54
2022-08-08T21:26:27.956Z,54
2022-08-08T21:32:27.116Z,48
2022-08-08T21:38:18.617Z,44
2022-08-08T21:43:58.743Z,56
2022-08-08T21:49:42.608Z,52
2022-08-08T21:56:49.027Z,56
2022-08-08T22:02:31.451Z,56
2022-08-08T22:08:24.670Z,48
2022-08-08T22:14:07.803Z,48
2022-08-08T22:20:28.662Z,54
2022-08-08T22:26:31.435Z,56
2022-08-08T22:32:13.118Z,50
2022-08-08T22:37:55.633Z,56
2022-08-08T22:44:06.481Z,44
2022-08-08T22:50:01.544Z,56
2022-08-08T22:56:03.721Z,46
2022-08-08T23:02:13.501Z,44
2022-08-08T23:07:58.856Z,52
2022-08-08T23:14:02.211Z,46
2022-08-08T23:19:54.479Z,46
2022-08-08T23:25:49.367Z,50
2022-08-08T23:31:41.942Z,54
2022-08-08T23:38:03.998Z,56
2022-08-08T23:43:56.063Z,48
2022-08-08T23:49:37.381Z,58
2022-08-08T23:55:24.916Z,54
